Time;durP1;ratioP1;P1;durP2;ratioP2;P2;SDS_P1;SDS_P2;PMS_P1;PMS_P2;Temp;Humidity;BMP_temperature;BMP_pressure;BME280_temperature;BME280_humidity;BME280_pressure;Samples;Min_cycle;Max_cycle;Signal;HPM_P1;HPM_P2
2024/01/25 00:00:47;;;;;;;18.00;3.50;;;;;;;7.10;100.00;102869.19;6084224;19;20034;-73
2024/01/25 00:02:50;;;;;;;9.95;3.15;;;;;;;7.09;100.00;102875.28;6082145;19;20006;-74
2024/01/25 00:04:57;;;;;;;19.23;3.50;;;;;;;7.10;100.00;102869.19;6084123;19;20013;-72
2024/01/25 00:07:02;;;;;;;16.92;4.03;;;;;;;7.07;100.00;102863.94;6083173;19;20021;-72
2024/01/25 00:09:13;;;;;;;16.08;4.45;;;;;;;7.03;100.00;102867.41;6081773;19;20007;-71
2024/01/25 00:11:18;;;;;;;15.52;3.70;;;;;;;7.00;100.00;102872.59;6082780;19;20014;-71
2024/01/25 00:13:24;;;;;;;23.13;4.25;;;;;;;7.04;100.00;102856.94;6088669;19;20557;-72
2024/01/25 00:15:30;;;;;;;17.92;4.07;;;;;;;7.03;100.00;102859.56;6089900;19;20022;-71
2024/01/25 00:17:35;;;;;;;25.83;5.13;;;;;;;6.95;100.00;102856.91;6085352;19;20019;-72
2024/01/25 00:19:41;;;;;;;11.00;3.78;;;;;;;6.96;100.00;102866.47;6088127;19;20013;-73
2024/01/25 00:21:46;;;;;;;14.35;3.78;;;;;;;6.98;100.00;102859.53;6089747;19;20025;-72
2024/01/25 00:23:53;;;;;;;19.33;3.58;;;;;;;7.11;100.00;102859.59;6086677;19;20082;-72
2024/01/25 00:25:59;;;;;;;10.43;3.28;;;;;;;7.00;100.00;102855.19;6090140;19;20329;-72
2024/01/25 00:28:07;;;;;;;17.30;4.65;;;;;;;6.86;100.00;102856.81;6087527;19;20503;-72
2024/01/25 00:30:10;;;;;;;26.17;4.88;;;;;;;6.87;100.00;102850.72;6082102;19;20034;-72
2024/01/25 00:32:17;;;;;;;10.30;3.30;;;;;;;6.84;100.00;102848.09;6087120;19;20423;-72
2024/01/25 00:34:22;;;;;;;18.48;4.15;;;;;;;6.80;100.00;102855.03;6087465;19;20006;-72
2024/01/25 00:36:31;;;;;;;16.38;3.17;;;;;;;6.79;100.00;102862.84;6088695;19;20557;-74
2024/01/25 00:38:41;;;;;;;19.52;5.40;;;;;;;6.80;100.00;102859.41;6089117;19;20448;-73
2024/01/25 00:40:48;;;;;;;20.73;4.03;;;;;;;6.71;100.00;102856.69;6085074;19;20281;-72
2024/01/25 00:42:56;;;;;;;12.07;3.60;;;;;;;6.81;100.00;102858.53;6086246;19;19999;-72
2024/01/25 00:45:06;;;;;;;22.40;4.40;;;;;;;6.78;100.00;102861.13;6086950;19;20479;-72
2024/01/25 00:47:13;;;;;;;12.23;3.38;;;;;;;6.79;100.00;102860.25;6088838;19;20010;-72
2024/01/25 00:49:18;;;;;;;12.50;4.65;;;;;;;6.66;100.00;102856.69;6085815;19;20010;-72
2024/01/25 00:51:24;;;;;;;21.58;4.85;;;;;;;6.70;100.00;102858.44;6088272;19;20015;-73
2024/01/25 00:53:27;;;;;;;14.63;3.78;;;;;;;6.77;100.00;102860.25;6085368;19;20140;-73
2024/01/25 00:55:34;;;;;;;11.27;3.55;;;;;;;6.63;100.00;102867.09;6083022;19;20027;-72
2024/01/25 00:57:39;;;;;;;19.35;3.40;;;;;;;6.56;100.00;102853.09;6089580;19;20077;-73
2024/01/25 00:59:48;;;;;;;15.73;4.22;;;;;;;6.50;100.00;102860.00;6088292;19;20036;-73
2024/01/25 01:01:57;;;;;;;16.05;3.60;;;;;;;6.57;100.00;102856.59;6087250;19;20002;-73
2024/01/25 01:04:05;;;;;;;11.73;3.22;;;;;;;6.48;100.00;102864.38;6086290;19;20011;-72
2024/01/25 01:06:09;;;;;;;20.75;4.28;;;;;;;6.42;100.00;102872.13;6088868;19;20042;-72
2024/01/25 01:08:15;;;;;;;12.50;3.25;;;;;;;6.47;100.00;102870.44;6079668;19;20079;-72
2024/01/25 01:10:21;;;;;;;17.77;4.30;;;;;;;6.44;100.00;102871.28;6087915;19;20018;-72
2024/01/25 01:12:24;;;;;;;14.13;3.70;;;;;;;6.43;100.00;102874.75;6088378;19;20031;-72
2024/01/25 01:14:29;;;;;;;19.17;4.35;;;;;;;6.47;100.00;102876.53;6088969;19;20046;-72
2024/01/25 01:16:39;;;;;;;13.88;3.95;;;;;;;6.47;100.00;102886.97;6086527;19;20018;-74
2024/01/25 01:18:44;;;;;;;10.23;3.58;;;;;;;6.37;100.00;102890.34;6085117;19;20019;-73
2024/01/25 01:20:50;;;;;;;12.00;2.90;;;;;;;6.41;100.00;102892.13;6089122;19;20007;-73
2024/01/25 01:22:57;;;;;;;14.00;2.88;;;;;;;6.32;100.00;102892.94;6087276;19;20006;-73
2024/01/25 01:25:02;;;;;;;12.98;3.53;;;;;;;6.36;100.00;102896.44;6084899;19;20007;-74
2024/01/25 01:27:07;;;;;;;16.40;4.18;;;;;;;6.42;100.00;102899.09;6084808;19;20011;-73
2024/01/25 01:29:09;;;;;;;13.55;4.35;;;;;;;6.37;100.00;102901.69;6086363;19;20007;-74
2024/01/25 01:31:14;;;;;;;10.98;3.58;;;;;;;6.42;100.00;102901.72;6086523;19;20018;-73
2024/01/25 01:33:25;;;;;;;14.80;4.05;;;;;;;6.48;100.00;102907.03;6086997;19;20416;-73
2024/01/25 01:35:27;;;;;;;15.93;3.70;;;;;;;6.41;100.00;102907.81;6087481;19;20018;-71
2024/01/25 01:37:32;;;;;;;9.70;3.63;;;;;;;6.37;100.00;102919.06;6086430;19;20007;-72
2024/01/25 01:39:40;;;;;;;22.85;4.13;;;;;;;6.30;100.00;102918.16;6082190;19;20003;-71
2024/01/25 01:41:49;;;;;;;15.38;4.53;;;;;;;6.27;100.00;102922.47;6086249;19;20010;-73
2024/01/25 01:43:55;;;;;;;18.35;3.95;;;;;;;6.15;100.00;102931.03;6085207;19;20073;-73
2024/01/25 01:46:06;;;;;;;14.38;3.75;;;;;;;6.11;100.00;102935.34;6085908;19;20020;-73
2024/01/25 01:48:11;;;;;;;12.65;3.63;;;;;;;6.03;100.00;102941.31;6087523;19;20020;-73
2024/01/25 01:50:22;;;;;;;12.98;3.58;;;;;;;6.09;100.00;102936.19;6086079;19;20388;-73
2024/01/25 01:52:24;;;;;;;21.42;4.45;;;;;;;6.23;100.00;102944.16;6082895;19;20009;-73
2024/01/25 01:54:35;;;;;;;15.80;4.18;;;;;;;6.06;100.00;102947.47;6084122;19;20024;-73
2024/01/25 01:56:41;;;;;;;12.98;3.03;;;;;;;5.95;100.00;102941.25;6086017;19;20007;-72
2024/01/25 01:58:45;;;;;;;14.50;4.05;;;;;;;5.87;100.00;102942.81;6084420;19;20030;-72
2024/01/25 02:00:53;;;;;;;18.42;3.97;;;;;;;6.00;100.00;102947.38;6087293;19;20030;-71
2024/01/25 02:02:58;;;;;;;15.48;3.65;;;;;;;5.98;100.00;102940.38;6084823;19;20002;-73
2024/01/25 02:05:03;;;;;;;13.18;3.35;;;;;;;5.97;100.00;102944.72;6088091;19;20007;-73
2024/01/25 02:07:14;;;;;;;18.67;2.97;;;;;;;5.91;100.00;102942.03;6087953;19;20085;-74
2024/01/25 02:09:17;;;;;;;13.55;3.90;;;;;;;5.78;100.00;102934.88;6087015;19;20002;-73
2024/01/25 02:11:22;;;;;;;;;;;;;;;5.67;100.00;102934.75;6088193;19;20030;-72
2024/01/25 02:13:27;;;;;;;20.30;3.92;;;;;;;5.84;100.00;102937.56;6083702;19;19911;-71
2024/01/25 02:15:33;;;;;;;16.55;4.78;;;;;;;5.85;100.00;102935.00;6084179;19;20542;-72
2024/01/25 02:17:41;;;;;;;16.95;3.63;;;;;;;5.82;100.00;102926.22;6085662;19;20601;-74
2024/01/25 02:19:46;;;;;;;19.35;4.43;;;;;;;5.80;100.00;102930.56;6084745;19;20420;-71
2024/01/25 02:21:53;;;;;;;17.58;4.72;;;;;;;5.82;100.00;102936.66;6084755;19;20007;-73
2024/01/25 02:24:01;;;;;;;23.75;4.30;;;;;;;5.67;100.00;102940.84;6085708;19;20677;-72
2024/01/25 02:26:04;;;;;;;17.98;3.70;;;;;;;5.57;100.00;102938.97;6086516;19;20006;-71
2024/01/25 02:28:10;;;;;;;16.40;3.60;;;;;;;5.57;100.00;102941.56;6084846;19;20873;-74
2024/01/25 02:30:15;;;;;;;24.15;3.95;;;;;;;5.61;100.00;102942.47;6084078;19;20360;-74
2024/01/25 02:32:21;;;;;;;16.60;4.68;;;;;;;5.61;100.00;102927.72;6081531;19;20006;-73
2024/01/25 02:34:26;;;;;;;16.65;5.03;;;;;;;5.45;100.00;102936.16;6080799;19;20018;-73
2024/01/25 02:36:35;;;;;;;12.65;3.63;;;;;;;5.43;100.00;102937.91;6080648;19;20007;-72
2024/01/25 02:38:40;;;;;;;24.88;4.38;;;;;;;5.43;100.00;102957.03;6084176;19;20596;-73
2024/01/25 02:40:48;;;;;;;24.10;5.07;;;;;;;5.28;100.00;102947.22;6084701;19;20455;-73
2024/01/25 02:42:56;;;;;;;12.32;3.75;;;;;;;5.22;100.00;102946.28;6083782;19;20861;-73
2024/01/25 02:45:01;;;;;;;13.60;4.18;;;;;;;5.21;100.00;102945.41;6086808;19;20025;-73
2024/01/25 02:47:05;;;;;;;13.25;3.17;;;;;;;5.16;100.00;102949.66;6085006;19;20011;-73
2024/01/25 02:49:10;;;;;;;9.55;3.03;;;;;;;5.04;100.00;102955.53;6081627;19;20042;-72
2024/01/25 02:51:15;;;;;;;20.45;4.20;;;;;;;4.98;100.00;102950.22;6083593;19;20007;-71
2024/01/25 02:53:20;;;;;;;13.25;3.42;;;;;;;4.94;100.00;102950.16;6083256;19;20039;-71
2024/01/25 02:55:25;;;;;;;13.85;3.83;;;;;;;4.91;100.00;102945.75;6086259;19;20034;-73
2024/01/25 02:57:33;;;;;;;25.88;5.00;;;;;;;4.84;100.00;102960.44;6083441;19;20009;-71
2024/01/25 02:59:39;;;;;;;8.27;2.40;;;;;;;4.82;100.00;102962.13;6084216;19;20014;-73
2024/01/25 03:01:42;;;;;;;19.45;3.85;;;;;;;4.82;100.00;102966.47;6082550;19;20435;-73
2024/01/25 03:03:47;;;;;;;12.60;3.40;;;;;;;4.74;100.00;102963.72;6080621;19;20006;-73
2024/01/25 03:05:54;;;;;;;17.17;5.13;;;;;;;4.73;100.00;102958.47;6082034;19;20531;-72
2024/01/25 03:07:59;;;;;;;13.85;3.00;;;;;;;4.64;100.00;102953.13;6083274;19;20025;-71
2024/01/25 03:10:04;;;;;;;15.80;4.00;;;;;;;4.55;100.00;102961.59;6083245;19;20051;-71
2024/01/25 03:12:10;;;;;;;21.23;3.92;;;;;;;4.55;100.00;102959.00;6084254;19;20043;-72
2024/01/25 03:14:18;;;;;;;20.65;3.95;;;;;;;4.47;100.00;102964.06;6082942;19;20043;-71
2024/01/25 03:16:23;;;;;;;17.98;4.07;;;;;;;4.30;100.00;102953.34;6084906;19;20034;-71
2024/01/25 03:18:29;;;;;;;17.63;3.80;;;;;;;4.26;100.00;102955.84;6082924;19;20544;-72
2024/01/25 03:20:35;;;;;;;20.00;5.20;;;;;;;4.18;100.00;102953.09;6082623;19;20007;-71
2024/01/25 03:22:40;;;;;;;15.13;3.97;;;;;;;4.09;100.00;102964.19;6082930;19;20074;-72
2024/01/25 03:24:46;;;;;;;8.90;2.80;;;;;;;4.04;100.00;102967.56;6085534;19;20042;-72
2024/01/25 03:26:52;;;;;;;11.77;3.97;;;;;;;3.95;100.00;102966.53;6084998;19;20447;-73
2024/01/25 03:28:57;;;;;;;18.58;3.63;;;;;;;3.86;100.00;102966.31;6084052;19;20042;-71
2024/01/25 03:31:05;;;;;;;7.80;3.15;;;;;;;3.77;100.00;102957.47;6084135;19;20010;-73
2024/01/25 03:33:10;;;;;;;24.80;5.07;;;;;;;3.81;100.00;102944.53;6083071;19;20014;-71
2024/01/25 03:35:16;;;;;;;13.30;4.88;;;;;;;3.80;100.00;102950.59;6085281;19;20031;-71
2024/01/25 03:37:21;;;;;;;12.63;3.05;;;;;;;3.77;100.00;102945.31;6082441;19;20554;-72
2024/01/25 03:39:26;;;;;;;19.80;3.85;;;;;;;3.71;100.00;102955.56;6081912;19;20018;-74
2024/01/25 03:41:32;;;;;;;16.83;4.18;;;;;;;3.61;100.00;102953.66;6082510;19;20010;-72
2024/01/25 03:43:39;;;;;;;14.65;3.60;;;;;;;3.47;100.00;102955.91;6081139;19;20039;-75
2024/01/25 03:45:45;;;;;;;12.20;3.00;;;;;;;3.46;100.00;102959.38;6084024;19;20014;-72
2024/01/25 03:47:53;;;;;;;13.15;3.42;;;;;;;3.42;100.00;102949.72;6082422;19;19998;-71
2024/01/25 03:49:59;;;;;;;15.13;3.83;;;;;;;3.43;100.00;102952.38;6083135;19;20031;-73
2024/01/25 03:52:05;;;;;;;16.08;3.97;;;;;;;3.39;100.00;102958.31;6082231;19;20016;-73
2024/01/25 03:54:10;;;;;;;14.18;3.40;;;;;;;3.34;100.00;102957.34;6083177;19;20002;-73
2024/01/25 03:56:17;;;;;;;10.82;3.47;;;;;;;3.27;100.00;102961.53;6082206;19;20077;-73
2024/01/25 03:58:19;;;;;;;18.02;3.03;;;;;;;3.25;100.00;102963.19;6083974;19;20066;-73
2024/01/25 04:00:26;;;;;;;10.02;3.03;;;;;;;3.29;100.00;102964.16;6082858;19;20451;-72
2024/01/25 04:02:33;;;;;;;18.23;3.15;;;;;;;3.28;100.00;102954.59;6080260;19;20010;-72
2024/01/25 04:04:40;;;;;;;12.90;3.25;;;;;;;3.32;100.00;102953.84;6083649;19;20118;-72
2024/01/25 04:06:48;;;;;;;15.68;4.10;;;;;;;3.34;100.00;102953.88;6078966;19;20021;-72
2024/01/25 04:08:54;;;;;;;14.25;4.22;;;;;;;3.30;100.00;102958.13;6084423;19;20007;-71
2024/01/25 04:10:59;;;;;;;14.90;3.50;;;;;;;3.32;100.00;102959.03;6082201;19;20022;-73
2024/01/25 04:13:03;;;;;;;10.60;4.57;;;;;;;3.22;100.00;102960.53;6080251;19;20007;-73
2024/01/25 04:15:10;;;;;;;14.18;3.72;;;;;;;3.12;100.00;102958.56;6081651;19;20007;-73
2024/01/25 04:17:15;;;;;;;14.80;3.90;;;;;;;3.12;100.00;102968.06;6080263;19;20014;-73
2024/01/25 04:19:19;;;;;;;10.52;3.58;;;;;;;3.16;100.00;102959.50;6082223;19;20014;-72
2024/01/25 04:21:27;;;;;;;12.27;3.97;;;;;;;3.06;100.00;102972.28;6083113;19;20003;-72
2024/01/25 04:23:33;;;;;;;20.75;4.60;;;;;;;3.08;100.00;102961.91;6082039;19;20384;-73
2024/01/25 04:25:41;;;;;;;10.82;3.28;;;;;;;3.03;100.00;102958.34;6083576;19;20019;-72
2024/01/25 04:27:51;;;;;;;14.75;4.43;;;;;;;2.94;100.00;102958.97;6080880;19;20015;-71
2024/01/25 04:29:54;;;;;;;12.98;3.70;;;;;;;2.94;100.00;102953.78;6079990;19;20031;-73
2024/01/25 04:31:59;;;;;;;11.65;3.58;;;;;;;3.03;100.00;102951.44;6081359;19;20017;-73
2024/01/25 04:34:06;;;;;;;14.90;3.10;;;;;;;2.95;100.00;102955.56;6080735;19;20384;-73
2024/01/25 04:36:11;;;;;;;9.07;3.60;;;;;;;2.96;100.00;102964.22;6082367;19;20448;-73
2024/01/25 04:38:19;;;;;;;13.95;3.10;;;;;;;2.90;100.00;102969.22;6079879;19;20031;-72
2024/01/25 04:40:27;;;;;;;16.20;3.42;;;;;;;2.79;100.00;102971.56;6079822;19;20434;-73
2024/01/25 04:42:32;;;;;;;16.88;3.75;;;;;;;2.77;100.00;102965.47;6083024;19;20500;-74
2024/01/25 04:44:39;;;;;;;14.05;3.83;;;;;;;2.76;100.00;102956.78;6080674;19;20027;-73
2024/01/25 04:46:44;;;;;;;14.68;3.15;;;;;;;2.77;100.00;102952.50;6081268;19;20010;-73
2024/01/25 04:48:50;;;;;;;18.20;5.07;;;;;;;2.86;100.00;102948.38;6073941;19;20024;-73
2024/01/25 04:50:55;;;;;;;11.32;3.15;;;;;;;2.97;100.00;102952.97;6078981;19;20015;-74
2024/01/25 04:53:00;;;;;;;17.58;3.97;;;;;;;2.96;100.00;102959.91;6073877;19;20010;-73
2024/01/25 04:55:10;;;;;;;28.17;4.40;;;;;;;2.92;100.00;102968.44;6081658;19;20359;-73
2024/01/25 04:57:15;;;;;;;7.63;4.18;;;;;;;2.93;100.00;102966.75;6082687;19;20015;-72
2024/01/25 04:59:20;;;;;;;16.52;3.85;;;;;;;2.89;100.00;102954.50;6088265;19;20017;-72
2024/01/25 05:01:25;;;;;;;13.38;4.63;;;;;;;2.93;100.00;102957.22;6084724;19;20020;-72
2024/01/25 05:03:28;;;;;;;13.90;3.22;;;;;;;3.03;100.00;102954.03;6087965;19;20459;-73
2024/01/25 05:05:34;;;;;;;20.77;5.35;;;;;;;3.08;100.00;102967.09;6087395;19;20665;-73
2024/01/25 05:07:39;;;;;;;15.05;4.13;;;;;;;3.08;100.00;102967.09;6085695;19;20017;-73
2024/01/25 05:09:44;;;;;;;13.95;3.75;;;;;;;3.03;100.00;102980.00;6085426;19;20014;-73
2024/01/25 05:11:52;;;;;;;14.15;3.08;;;;;;;2.94;100.00;102990.13;6086552;19;20014;-73
2024/01/25 05:13:57;;;;;;;10.63;4.43;;;;;;;2.86;100.00;102991.66;6086601;19;20019;-73
2024/01/25 05:16:02;;;;;;;20.77;3.83;;;;;;;2.87;100.00;102988.25;6081161;19;20411;-73
2024/01/25 05:18:08;;;;;;;19.88;6.93;;;;;;;2.90;100.00;102995.22;6087313;19;20002;-73
2024/01/25 05:20:17;;;;;;;11.93;3.55;;;;;;;2.86;100.00;103004.66;6086590;19;20011;-71
2024/01/25 05:22:24;;;;;;;16.08;5.05;;;;;;;2.78;100.00;103008.75;6082063;19;20011;-71
2024/01/25 05:24:30;;;;;;;25.48;3.95;;;;;;;2.74;100.00;103012.09;6085018;19;20526;-71
2024/01/25 05:26:35;;;;;;;16.25;4.65;;;;;;;2.73;100.00;103018.13;6085438;19;20082;-73
2024/01/25 05:28:42;;;;;;;13.23;3.60;;;;;;;2.62;100.00;103023.91;6088905;19;20659;-73
2024/01/25 05:30:47;;;;;;;15.73;4.25;;;;;;;2.54;100.00;103015.03;6088327;19;20010;-73
2024/01/25 05:32:54;;;;;;;13.38;4.53;;;;;;;2.42;100.00;103010.41;6082888;19;20014;-71
2024/01/25 05:35:00;;;;;;;8.15;3.30;;;;;;;2.37;100.00;103000.72;6087108;19;20457;-72
2024/01/25 05:37:07;;;;;;;10.23;3.50;;;;;;;2.35;100.00;102997.22;6084300;19;20007;-70
2024/01/25 05:39:12;;;;;;;18.52;4.97;;;;;;;2.34;100.00;102995.44;6083701;19;22513;-71
2024/01/25 05:41:17;;;;;;;20.35;4.28;;;;;;;2.34;100.00;102993.75;6083806;19;20019;-71
2024/01/25 05:43:20;;;;;;;15.90;4.20;;;;;;;2.32;100.00;102991.94;6085406;19;20097;-71
2024/01/25 05:45:28;;;;;;;8.35;3.33;;;;;;;2.27;100.00;102998.72;6086912;19;20038;-72
2024/01/25 05:47:34;;;;;;;15.85;3.90;;;;;;;2.23;100.00;102999.44;6085757;19;20011;-73
2024/01/25 05:49:39;;;;;;;14.13;4.38;;;;;;;2.15;100.00;102996.63;6085278;19;20011;-72
2024/01/25 05:51:44;;;;;;;19.38;4.53;;;;;;;2.22;100.00;103000.28;6084461;19;20539;-72
2024/01/25 05:53:49;;;;;;;12.93;4.60;;;;;;;2.17;100.00;102989.78;6082106;19;20014;-72
2024/01/25 05:55:54;;;;;;;8.13;3.10;;;;;;;2.15;100.00;102988.84;6083654;19;20011;-72
2024/01/25 05:58:02;;;;;;;10.93;3.30;;;;;;;2.28;100.00;102992.69;6086064;19;20007;-71
2024/01/25 06:00:11;;;;;;;19.75;5.15;;;;;;;2.41;100.00;103002.56;6086442;19;20030;-73
2024/01/25 06:02:19;;;;;;;16.83;5.07;;;;;;;2.49;100.00;103002.78;6085850;19;20550;-72
2024/01/25 06:04:24;;;;;;;18.92;4.57;;;;;;;2.55;100.00;103021.09;6087093;19;20018;-73
2024/01/25 06:06:29;;;;;;;17.17;5.28;;;;;;;2.54;100.00;103024.56;6086842;19;20572;-71
2024/01/25 06:08:36;;;;;;;16.25;5.60;;;;;;;2.54;100.00;103016.75;6084394;19;20010;-71
2024/01/25 06:10:43;;;;;;;15.82;4.03;;;;;;;2.58;100.00;103011.72;6084924;19;20014;-73
2024/01/25 06:12:45;;;;;;;12.93;4.30;;;;;;;2.62;100.00;103008.34;6088176;19;20684;-72
2024/01/25 06:14:53;;;;;;;15.05;4.43;;;;;;;2.70;100.00;103008.56;6086261;19;20514;-73
2024/01/25 06:16:59;;;;;;;14.30;5.15;;;;;;;2.81;100.00;102998.44;6081464;19;20010;-73
2024/01/25 06:19:07;;;;;;;16.25;4.20;;;;;;;2.84;100.00;103003.72;6087196;19;20024;-72
2024/01/25 06:21:13;;;;;;;22.55;5.55;;;;;;;2.94;100.00;102994.47;6086372;19;20515;-73
2024/01/25 06:23:18;;;;;;;11.93;5.03;;;;;;;2.91;100.00;103013.44;6086019;19;20010;-73
2024/01/25 06:25:23;;;;;;;18.77;5.85;;;;;;;3.00;100.00;103026.69;6084222;19;20536;-73
2024/01/25 06:27:28;;;;;;;19.17;5.60;;;;;;;2.92;100.00;103020.38;6085249;19;20011;-73
2024/01/25 06:29:33;;;;;;;17.75;4.60;;;;;;;2.73;100.00;103020.75;6086651;19;20019;-73
2024/01/25 06:31:44;;;;;;;16.30;4.68;;;;;;;2.64;100.00;103013.59;6084046;19;20014;-72
2024/01/25 06:33:50;;;;;;;23.20;6.22;;;;;;;2.72;100.00;103001.69;6084758;19;20006;-72
2024/01/25 06:36:00;;;;;;;19.88;6.35;;;;;;;2.68;100.00;102998.97;6084816;19;20006;-71
2024/01/25 06:38:05;;;;;;;22.25;6.20;;;;;;;2.63;100.00;103004.03;6086340;19;20383;-73
2024/01/25 06:40:11;;;;;;;8.43;3.75;;;;;;;2.59;100.00;103004.78;6087438;19;20017;-73
2024/01/25 06:42:16;;;;;;;14.43;5.05;;;;;;;2.52;100.00;103005.47;6088588;19;20094;-73
2024/01/25 06:44:22;;;;;;;14.45;5.25;;;;;;;2.46;100.00;103019.16;6086743;19;20043;-73
2024/01/25 06:46:29;;;;;;;15.30;5.05;;;;;;;2.52;100.00;103010.66;6086844;19;20098;-73
2024/01/25 06:48:32;;;;;;;14.02;5.38;;;;;;;2.46;100.00;103013.09;6087507;19;20077;-72
2024/01/25 06:50:39;;;;;;;13.82;4.97;;;;;;;2.37;100.00;103014.59;6086701;19;20121;-72
2024/01/25 06:52:45;;;;;;;27.00;5.72;;;;;;;2.33;100.00;103004.94;6082192;19;20417;-73
2024/01/25 06:54:50;;;;;;;14.07;4.72;;;;;;;2.36;100.00;103005.03;6082924;19;20011;-71
2024/01/25 06:56:57;;;;;;;9.98;5.00;;;;;;;2.43;100.00;103008.69;6084851;19;20649;-71
2024/01/25 06:59:02;;;;;;;12.00;4.90;;;;;;;2.58;100.00;103003.91;6079440;19;20019;-72
2024/01/25 07:01:05;;;;;;;20.92;6.70;;;;;;;2.61;100.00;103008.31;6086744;19;20471;-71
2024/01/25 07:03:11;;;;;;;14.23;5.40;;;;;;;2.61;100.00;103016.09;6080648;19;20407;-71
2024/01/25 07:05:16;;;;;;;20.45;4.88;;;;;;;2.66;100.00;103016.22;6082405;19;20447;-72
2024/01/25 07:07:23;;;;;;;13.38;5.43;;;;;;;2.61;100.00;103014.38;6081023;19;20351;-71
2024/01/25 07:09:31;;;;;;;14.15;4.75;;;;;;;2.58;100.00;103016.91;6081473;19;20419;-71
2024/01/25 07:11:38;;;;;;;20.98;6.13;;;;;;;2.48;100.00;103021.78;6082517;19;20010;-72
2024/01/25 07:13:44;;;;;;;17.63;5.60;;;;;;;2.42;100.00;103022.47;6079574;19;20198;-72
2024/01/25 07:15:49;;;;;;;19.08;5.78;;;;;;;2.60;100.00;103025.59;6082355;19;20023;-71
2024/01/25 07:17:55;;;;;;;18.83;5.43;;;;;;;2.71;100.00;103027.59;6082804;19;20435;-73
2024/01/25 07:20:03;;;;;;;28.02;6.72;;;;;;;2.73;100.00;103025.94;6083234;19;20086;-73
2024/01/25 07:22:09;;;;;;;15.75;5.43;;;;;;;2.88;100.00;103021.16;6083235;19;20014;-73
2024/01/25 07:24:14;;;;;;;25.48;6.10;;;;;;;2.94;100.00;103021.31;6084847;19;20078;-73
2024/01/25 07:26:22;;;;;;;20.80;6.55;;;;;;;3.03;100.00;103021.56;6085514;19;20034;-73
2024/01/25 07:28:27;;;;;;;20.88;5.47;;;;;;;3.07;100.00;103028.56;6084097;19;20070;-74
2024/01/25 07:30:34;;;;;;;19.45;5.88;;;;;;;2.95;100.00;103033.47;6084871;19;20030;-73
2024/01/25 07:32:37;;;;;;;22.52;7.15;;;;;;;2.92;100.00;103022.97;6082200;19;20006;-73
2024/01/25 07:34:43;;;;;;;20.45;5.93;;;;;;;2.93;100.00;103035.13;6086058;19;20035;-72
2024/01/25 07:36:45;;;;;;;15.70;5.05;;;;;;;2.83;100.00;103027.94;6083167;19;20159;-72
2024/01/25 07:38:51;;;;;;;16.67;6.00;;;;;;;2.83;100.00;103020.16;6084607;19;20007;-73
2024/01/25 07:40:59;;;;;;;13.38;5.10;;;;;;;2.85;100.00;103021.06;6085103;19;20077;-73
2024/01/25 07:43:04;;;;;;;14.10;5.00;;;;;;;2.92;100.00;103020.38;6086307;19;20367;-73
2024/01/25 07:45:13;;;;;;;12.25;4.65;;;;;;;2.98;100.00;103022.28;6080291;19;20003;-72
2024/01/25 07:47:20;;;;;;;24.75;4.70;;;;;;;3.06;100.00;103036.34;6078385;19;20014;-73
2024/01/25 07:49:25;;;;;;;12.57;4.57;;;;;;;3.02;100.00;103037.09;6081805;19;20448;-72
2024/01/25 07:51:28;;;;;;;17.83;5.35;;;;;;;2.98;100.00;103045.66;6084111;19;20004;-73
2024/01/25 07:53:33;;;;;;;17.40;5.40;;;;;;;3.00;100.00;103041.34;6079985;19;20137;-73
2024/01/25 07:55:41;;;;;;;21.48;5.38;;;;;;;3.02;100.00;103031.91;6081394;19;20014;-74
2024/01/25 07:57:46;;;;;;;19.67;6.57;;;;;;;3.02;100.00;103009.38;6081974;19;20323;-73
2024/01/25 07:59:54;;;;;;;16.98;6.10;;;;;;;3.09;100.00;103002.66;6081322;19;20502;-72
2024/01/25 08:02:02;;;;;;;17.05;6.15;;;;;;;3.08;100.00;103004.38;6084205;19;20506;-72
2024/01/25 08:04:07;;;;;;;23.77;5.80;;;;;;;3.10;100.00;103004.38;6082469;19;20511;-72
2024/01/25 08:06:11;;;;;;;20.88;5.90;;;;;;;3.14;100.00;103001.03;6082197;19;20006;-72
2024/01/25 08:08:16;;;;;;;;;;;;;;;3.16;100.00;102998.47;6081398;19;21110;-71
2024/01/25 08:10:23;;;;;;;22.38;5.90;;;;;;;3.22;100.00;103007.31;6085202;19;19915;-72
2024/01/25 08:12:31;;;;;;;25.42;5.40;;;;;;;3.29;100.00;103008.31;6081720;19;20467;-72
2024/01/25 08:14:36;;;;;;;18.00;4.78;;;;;;;3.26;100.00;103003.94;6080780;19;20498;-73
2024/01/25 08:16:44;;;;;;;22.55;5.70;;;;;;;3.35;100.00;103012.81;6084693;19;20088;-73
2024/01/25 08:18:49;;;;;;;16.88;5.45;;;;;;;3.45;100.00;103010.47;6080402;19;20011;-72
2024/01/25 08:20:52;;;;;;;26.38;5.43;;;;;;;3.44;100.00;103007.81;6081700;19;20363;-71
2024/01/25 08:22:58;;;;;;;9.68;4.55;;;;;;;3.51;100.00;103025.34;6083470;19;20470;-71
2024/01/25 08:25:04;;;;;;;17.08;5.13;;;;;;;3.57;100.00;103024.59;6084610;19;20359;-70
2024/01/25 08:27:10;;;;;;;18.38;5.00;;;;;;;3.69;100.00;103027.50;6084439;19;20014;-71
2024/01/25 08:29:19;;;;;;;15.85;5.80;;;;;;;3.71;100.00;103017.97;6078661;19;19998;-70
2024/01/25 08:31:25;;;;;;;25.85;6.07;;;;;;;3.78;100.00;103016.41;6084766;19;20039;-71
2024/01/25 08:33:33;;;;;;;14.95;5.82;;;;;;;3.78;100.00;103019.00;6085933;19;20006;-73
2024/01/25 08:35:36;;;;;;;15.65;5.22;;;;;;;3.81;100.00;103019.06;6089730;19;20011;-71
2024/01/25 08:37:44;;;;;;;16.33;4.70;;;;;;;3.83;100.00;103028.66;6085961;19;20019;-72
2024/01/25 08:39:50;;;;;;;21.80;5.00;;;;;;;3.83;100.00;103028.66;6090333;19;20007;-71
2024/01/25 08:42:00;;;;;;;15.10;6.50;;;;;;;3.88;100.00;103026.19;6089010;19;20010;-71
2024/01/25 08:44:05;;;;;;;19.20;5.47;;;;;;;3.87;100.00;103025.31;6089297;19;20014;-71
2024/01/25 08:46:10;;;;;;;19.90;5.50;;;;;;;3.92;100.00;103020.19;6088199;19;20002;-72
2024/01/25 08:48:15;;;;;;;11.55;5.00;;;;;;;3.97;100.00;103026.38;6086147;19;20078;-71
2024/01/25 08:50:26;;;;;;;12.38;5.03;;;;;;;4.04;100.00;103038.69;6089576;19;20011;-71
2024/01/25 08:52:31;;;;;;;18.48;6.38;;;;;;;4.09;100.00;103026.66;6083131;19;20011;-71
2024/01/25 08:54:37;;;;;;;12.13;5.88;;;;;;;4.10;100.00;103015.38;6086368;19;20002;-71
2024/01/25 08:56:42;;;;;;;17.75;5.90;;;;;;;4.15;100.00;103016.34;6087818;19;20398;-71
2024/01/25 08:58:48;;;;;;;18.42;6.00;;;;;;;4.24;100.00;103022.59;6083766;19;20036;-71
2024/01/25 09:00:53;;;;;;;11.65;5.32;;;;;;;4.31;100.00;103021.88;6086995;19;20550;-72
2024/01/25 09:02:58;;;;;;;19.25;5.53;;;;;;;4.37;100.00;103006.38;6084336;19;20086;-71
2024/01/25 09:05:04;;;;;;;16.90;6.57;;;;;;;4.42;100.00;103001.28;6089731;19;20018;-71
2024/01/25 09:07:15;;;;;;;21.80;6.03;;;;;;;4.47;100.00;102997.91;6087208;19;20313;-74
2024/01/25 09:09:21;;;;;;;13.65;5.90;;;;;;;4.56;100.00;103000.72;6084242;19;20037;-74
2024/01/25 09:11:27;;;;;;;17.17;6.18;;;;;;;4.63;100.00;102999.09;6086814;19;20007;-73
2024/01/25 09:13:32;;;;;;;19.08;5.63;;;;;;;4.66;100.00;102993.97;6086726;19;20014;-73
2024/01/25 09:15:48;;;;;;;17.27;5.68;;;;;;;4.71;100.00;102992.28;6085039;19;20568;-72
2024/01/25 09:17:54;;;;;;;13.60;4.85;;;;;;;4.77;100.00;102997.63;6087269;19;20036;-73
2024/01/25 09:20:03;;;;;;;12.23;5.47;;;;;;;4.84;100.00;102989.09;6084826;19;20002;-71
2024/01/25 09:22:09;;;;;;;16.30;6.13;;;;;;;4.90;100.00;102996.13;6086130;19;20015;-72
2024/01/25 09:24:17;;;;;;;18.73;7.07;;;;;;;4.94;100.00;102984.03;6085288;19;20191;-73
2024/01/25 09:26:23;;;;;;;22.25;5.50;;;;;;;5.01;100.00;102980.69;6085562;19;20018;-72
2024/01/25 09:28:28;;;;;;;22.85;7.45;;;;;;;5.02;100.00;102985.03;6088092;19;20003;-71
2024/01/25 09:30:33;;;;;;;26.27;6.72;;;;;;;5.05;100.00;102991.19;6086022;19;19998;-73
2024/01/25 09:32:38;;;;;;;22.35;6.40;;;;;;;5.08;100.00;102998.16;6084648;19;20011;-72
2024/01/25 09:34:43;;;;;;;26.45;7.45;;;;;;;5.17;100.00;102995.72;6084845;19;20038;-72
2024/01/25 09:36:52;;;;;;;20.30;6.97;;;;;;;5.19;100.00;102994.00;6085127;19;20075;-72
2024/01/25 09:38:58;;;;;;;24.73;6.72;;;;;;;5.26;100.00;102994.97;6084071;19;20061;-74
2024/01/25 09:41:06;;;;;;;16.40;5.13;;;;;;;5.32;100.00;102983.75;6086604;19;20073;-73